sensor_id;sensor_type;location;lat;lon;timestamp;pressure;altitude;pressure_sealevel;temperature;humidity
31011;BME280;26395;53.412;19.598;2023-03-19T00:14:42;100387.39;;;9.54;56.89
31011;BME280;26395;53.412;19.598;2023-03-19T00:29:45;100385.24;;;9.09;57.18
31011;BME280;26395;53.412;19.598;2023-03-19T00:44:48;100382.23;;;8.63;57.74
31011;BME280;26395;53.412;19.598;2023-03-19T00:59:51;100387.05;;;8.29;58.68
31011;BME280;26395;53.412;19.598;2023-03-19T01:14:54;100394.77;;;8.01;59.20
31011;BME280;26395;53.412;19.598;2023-03-19T01:30:02;100396.91;;;7.79;59.51
31011;BME280;26395;53.412;19.598;2023-03-19T01:45:36;100389.61;;;7.70;60.29
31011;BME280;26395;53.412;19.598;2023-03-19T02:01:05;100391.63;;;7.49;60.91
31011;BME280;26395;53.412;19.598;2023-03-19T02:16:11;100385.79;;;7.39;61.10
31011;BME280;26395;53.412;19.598;2023-03-19T02:31:16;100383.55;;;7.41;61.26
31011;BME280;26395;53.412;19.598;2023-03-19T02:46:20;100388.38;;;7.53;61.10
31011;BME280;26395;53.412;19.598;2023-03-19T03:01:23;100394.09;;;7.29;61.27
31011;BME280;26395;53.412;19.598;2023-03-19T03:16:27;100399.81;;;7.15;61.65
31011;BME280;26395;53.412;19.598;2023-03-19T03:31:31;100405.27;;;7.19;62.03
31011;BME280;26395;53.412;19.598;2023-03-19T03:46:34;100402.73;;;7.33;62.50
31011;BME280;26395;53.412;19.598;2023-03-19T04:01:38;100405.35;;;7.50;62.49
31011;BME280;26395;53.412;19.598;2023-03-19T04:16:41;100415.99;;;7.61;62.82
31011;BME280;26395;53.412;19.598;2023-03-19T04:31:46;100412.22;;;7.82;62.97
31011;BME280;26395;53.412;19.598;2023-03-19T04:46:50;100407.55;;;7.88;62.97
31011;BME280;26395;53.412;19.598;2023-03-19T05:01:54;100400.78;;;7.95;62.76
31011;BME280;26395;53.412;19.598;2023-03-19T05:16:59;100396.38;;;8.05;62.28
31011;BME280;26395;53.412;19.598;2023-03-19T05:32:09;100398.84;;;8.28;61.80
31011;BME280;26395;53.412;19.598;2023-03-19T05:47:13;100411.17;;;8.45;61.86
31011;BME280;26395;53.412;19.598;2023-03-19T06:02:21;100416.06;;;8.58;61.25
31011;BME280;26395;53.412;19.598;2023-03-19T06:17:26;100412.05;;;8.85;61.22
31011;BME280;26395;53.412;19.598;2023-03-19T06:32:32;100412.80;;;9.31;60.54
31011;BME280;26395;53.412;19.598;2023-03-19T06:47:42;100416.45;;;9.79;60.21
31011;BME280;26395;53.412;19.598;2023-03-19T07:02:45;100421.27;;;9.97;59.58
31011;BME280;26395;53.412;19.598;2023-03-19T07:17:49;100455.98;;;10.31;59.59
31011;BME280;26395;53.412;19.598;2023-03-19T07:32:52;100469.54;;;11.20;59.59
31011;BME280;26395;53.412;19.598;2023-03-19T07:47:57;100466.70;;;11.90;59.03
31011;BME280;26395;53.412;19.598;2023-03-19T08:03:00;100470.50;;;12.75;57.62
31011;BME280;26395;53.412;19.598;2023-03-19T08:18:04;100472.14;;;13.45;56.13
31011;BME280;26395;53.412;19.598;2023-03-19T08:33:07;100472.70;;;14.18;55.85
31011;BME280;26395;53.412;19.598;2023-03-19T08:48:10;100462.46;;;14.91;54.46
31011;BME280;26395;53.412;19.598;2023-03-19T09:03:15;100455.70;;;15.95;53.17
31011;BME280;26395;53.412;19.598;2023-03-19T09:18:19;100457.92;;;16.28;52.98
31011;BME280;26395;53.412;19.598;2023-03-19T09:33:23;100454.60;;;16.84;52.10
31011;BME280;26395;53.412;19.598;2023-03-19T09:48:34;100459.83;;;17.65;50.88
31011;BME280;26395;53.412;19.598;2023-03-19T10:04:15;100458.08;;;18.47;51.02
31011;BME280;26395;53.412;19.598;2023-03-19T10:19:25;100444.17;;;19.32;47.14
31011;BME280;26395;53.412;19.598;2023-03-19T10:34:43;100429.17;;;20.20;46.84
31011;BME280;26395;53.412;19.598;2023-03-19T10:49:49;100421.04;;;21.23;46.18
31011;BME280;26395;53.412;19.598;2023-03-19T11:20:35;100409.30;;;22.16;42.92
31011;BME280;26395;53.412;19.598;2023-03-19T11:35:44;100406.17;;;21.93;42.42
31011;BME280;26395;53.412;19.598;2023-03-19T11:51:06;100388.32;;;22.67;42.32
31011;BME280;26395;53.412;19.598;2023-03-19T12:52:13;100361.36;;;24.24;39.11
31011;BME280;26395;53.412;19.598;2023-03-19T13:07:37;100357.42;;;24.11;38.63
31011;BME280;26395;53.412;19.598;2023-03-19T13:22:49;100343.36;;;24.23;39.46
31011;BME280;26395;53.412;19.598;2023-03-19T13:38:03;100326.52;;;24.53;40.42
31011;BME280;26395;53.412;19.598;2023-03-19T14:08:44;100313.17;;;22.86;40.08
31011;BME280;26395;53.412;19.598;2023-03-19T14:23:53;100311.86;;;21.97;41.52
31011;BME280;26395;53.412;19.598;2023-03-19T14:39:02;100307.46;;;21.25;42.87
31011;BME280;26395;53.412;19.598;2023-03-19T15:09:29;100303.21;;;20.37;44.11
31011;BME280;26395;53.412;19.598;2023-03-19T15:24:38;100300.95;;;20.18;43.63
31011;BME280;26395;53.412;19.598;2023-03-19T15:39:48;100297.87;;;20.14;44.37
31011;BME280;26395;53.412;19.598;2023-03-19T15:54:54;100300.13;;;19.74;45.18
31011;BME280;26395;53.412;19.598;2023-03-19T16:09:59;100311.18;;;19.46;45.96
31011;BME280;26395;53.412;19.598;2023-03-19T16:25:02;100320.65;;;18.98;46.96
31011;BME280;26395;53.412;19.598;2023-03-19T16:55:23;100339.77;;;18.01;48.34
31011;BME280;26395;53.412;19.598;2023-03-19T17:10:28;100353.62;;;17.50;49.44
31011;BME280;26395;53.412;19.598;2023-03-19T17:25:32;100358.48;;;17.22;50.30
31011;BME280;26395;53.412;19.598;2023-03-19T17:40:36;100360.16;;;16.91;50.55
31011;BME280;26395;53.412;19.598;2023-03-19T17:55:40;100360.06;;;16.64;50.94
31011;BME280;26395;53.412;19.598;2023-03-19T18:10:44;100347.64;;;16.37;51.13
31011;BME280;26395;53.412;19.598;2023-03-19T18:25:48;100347.23;;;16.11;51.68
31011;BME280;26395;53.412;19.598;2023-03-19T18:40:54;100343.02;;;15.83;52.28
31011;BME280;26395;53.412;19.598;2023-03-19T18:55:58;100343.61;;;15.83;52.05
31011;BME280;26395;53.412;19.598;2023-03-19T19:11:05;100344.21;;;15.78;52.32
31011;BME280;26395;53.412;19.598;2023-03-19T19:26:19;100350.98;;;15.65;52.73
31011;BME280;26395;53.412;19.598;2023-03-19T19:41:25;100347.42;;;15.58;53.18
31011;BME280;26395;53.412;19.598;2023-03-19T19:56:29;100335.44;;;15.34;53.75
31011;BME280;26395;53.412;19.598;2023-03-19T20:11:32;100343.50;;;15.33;54.03
31011;BME280;26395;53.412;19.598;2023-03-19T20:26:36;100350.96;;;14.95;54.57
31011;BME280;26395;53.412;19.598;2023-03-19T20:41:40;100344.23;;;14.41;55.12
31011;BME280;26395;53.412;19.598;2023-03-19T20:56:44;100351.70;;;14.21;56.10
31011;BME280;26395;53.412;19.598;2023-03-19T21:11:50;100352.79;;;13.88;56.26
31011;BME280;26395;53.412;19.598;2023-03-19T21:26:54;100349.38;;;13.74;56.90
31011;BME280;26395;53.412;19.598;2023-03-19T21:41:59;100349.20;;;13.50;57.60
31011;BME280;26395;53.412;19.598;2023-03-19T21:57:04;100347.84;;;13.31;58.31
31011;BME280;26395;53.412;19.598;2023-03-19T22:12:18;100337.70;;;13.09;59.28
31011;BME280;26395;53.412;19.598;2023-03-19T22:27:26;100327.55;;;12.76;59.54
31011;BME280;26395;53.412;19.598;2023-03-19T22:42:29;100320.48;;;12.60;60.22
31011;BME280;26395;53.412;19.598;2023-03-19T22:57:33;100314.17;;;12.38;60.69
31011;BME280;26395;53.412;19.598;2023-03-19T23:12:36;100310.83;;;12.14;61.24
31011;BME280;26395;53.412;19.598;2023-03-19T23:27:40;100301.65;;;11.84;61.61
31011;BME280;26395;53.412;19.598;2023-03-19T23:42:47;100300.49;;;11.60;61.89
31011;BME280;26395;53.412;19.598;2023-03-19T23:57:52;100294.98;;;11.29;62.11
